Milton, New Hampshire
Current Conditions -  °F | °C
As of 11:51 PM on Wednesday 22 Oct 2014 (Local Time) from KDAW Reporting Station
Light Rain Light Rain  
Wind Chill: 40°   Ceiling: 1000
Heat Index: 47°   Visibility: 6mi
Dew Point: 44°   Wind: 16mph
Humidity: 90%   Direction: 30°NNE
Pressure: 29.92"   Gusts: 26mph
Location:  43.41°N, 70.99°W
Report Text: KDAW 230351Z AUTO 03014G23KT 6SM -RA BR OVC010 08/07 A2992 RMK AO2 RAB01 CIG 007V015 SLP130 P0002 T00830067
Loading
Personal Weather Stations






























Interactive Weather Map
Tropical Storm Tracking
New forecast layout! Learn more

10-Day Weather Forecast

Advertisements
Track Severe Weather on mobile